Overview Statistics Trail Chart Weather Telemetry Raw packets
 

This is the latest recevied weather packets stored in our database for station/object IT9DBI-3. If no packets are shown the sender has not sent any weather packets the latest 10 day(s).

<< 5 6 7 8 9 10 11 >>
Time Temp. Humidity Pressure Rain* Wind** Luminosity Snow
1788406889 30° C 59% 1015.4 hPa - - - -
1788405688 30° C 59% 1015.6 hPa - - - -
1788404486 30° C 60% 1015.6 hPa - - - -
1788403285 31.67° C 55% 1015.6 hPa - - - -
1788402084 30.56° C 58% 1015.8 hPa - - - -
1788400883 30.56° C 58% 1015.8 hPa - - - -
1788399688 30.56° C 59% 1016 hPa - - - -
1788398480 30° C 60% 1016 hPa - - - -
1788397279 31.67° C 55% 1016 hPa - - - -
1788396077 30.56° C 58% 1016.1 hPa - - - -
1788394876 31.67° C 56% 1016.1 hPa - - - -
1788393675 30.56° C 59% 1016.3 hPa - - - -
1788392473 31.11° C 57% 1016.5 hPa - - - -
1788391272 30.56° C 59% 1016.4 hPa - - - -
1788390071 30.56° C 60% 1016.5 hPa - - - -
1788388870 30° C 61% 1016.6 hPa - - - -
1788387688 30° C 61% 1016.6 hPa - - - -
1788386467 30.56° C 60% 1016.6 hPa - - - -
1788385266 30.56° C 59% 1016.8 hPa - - - -
1788384064 31.11° C 57% 1016.7 hPa - - - -
1788382863 30.56° C 58% 1016.7 hPa - - - -
1788381662 32.22° C 54% 1016.6 hPa - - - -
1788380460 31.11° C 56% 1016.6 hPa - - - -
1788379259 31.11° C 55% 1016.7 hPa - - - -
1788378058 30° C 59% 1016.9 hPa - - - -

* Rain since midnight (hover to see other rain measurements)
** Current wind speed in m/s (hover to see current wind gust speed)